Terminal Aerodrome Forecast
Issued by NWS Northern Indiana

Home | Current Version | Previous Version | Text Only | Print | Product List | Glossary On
Versions: 1 2 3 4 5 6 7 8 9 10 11 12 13 14
241
FTUS43 KIWX 251130
TAFFWA
TAF
KFWA 251130Z 2512/2612 34008KT P6SM SCT007 OVC015
      TEMPO 2512/2513 BKN007
     FM251400 34011KT P6SM BKN015
     FM251700 34012G18KT P6SM SCT040
     FM260000 33006KT P6SM SKC=

USA.gov is the U.S. government's official web portal to all federal, state and local government web resources and services.